Skip Navigation Links
NOAA logo - Click to go to the NOAA homepage
NOAA's National Weather Service
Alaska Aviation Weather Unit
  NWS logo - Click to go to the NWS homepage
Left Navbar Graphic     10 AKDT = 18 GMT

   
NOAA is celebrating 200 years of science, service, and stewardship. Visit the NOAA 200th celebration Web site to learn more.
USA.gov is the U.S. Government's official Web portal to all Federal, state and local government Web resources and services.
Facebook
NWS on Facebook

Important Change Regarding the AAWU Web Presence

 

Over the last several months, the AAWU has been working to navigate its webpages to a nationally supported server. Security, as well as other needs, have necessitated the change.  We have been given an extension for the site changeover while we diligently work at addressing feedback received. As of July 14, 2017, aawu.arh.noaa.gov will be discontinued. The new AAWU web address is weather.gov/aawu. It is now live and will run in-parallel with the old site until it is discontinued on July 14, 2017. Please continue to send any feedback or questions regarding the new webpages to nws.ar.aawu.webauthors@noaa.gov.  Thank you for your patience during this time of transition.
AAWU Home :: Display TAF Add Bookmark
METAR PAEM 261256Z AUTO 36007KT 10SM CLR 01/00 A2998 RMK AO2 SLP210
 T00110000 FZRANO=

METAR PAEM 261356Z AUTO 36008KT 10SM CLR 01/00 A2997 RMK AO2 SLP210
     T00110000 FZRANO=

METAR PAEM 261456Z AUTO 34007KT 10SM BKN028 02/00 A2998 RMK AO2 SLP211
     T00170000 53000 FZRANO=

SPECI PAEM 261528Z AUTO 35007KT 10SM OVC030 01/00 A2997 RMK AO2
     FZRANO=

METAR PAEM 261556Z AUTO 36009KT 10SM OVC032 02/01 A2997 RMK AO2 SLP209
     T00220006 FZRANO=

METAR PAEM 261656Z AUTO 36007KT 10SM OVC030 03/01 A2998 RMK AO2 SLP212
     T00280011=

METAR PAEM 261756Z AUTO 02007KT 10SM BKN030 03/01 A2998 RMK AO2 SLP212
     T00280011 10028 20006 53002=


NOAA's National Weather Service
Alaska Aviation Weather Unit
6930 Sand Lake Road
Anchorage, AK 99502-1845
Disclaimer
Credits
Glossary
Privacy Policy
About Us
Career Opportunities
Contact AAWU Internet Services Site last modified: April, 17th 2012